KJLN

Joplin Regional Airport

Joplin, Missouri, USA
KJLN 211720Z 2118/2218 36010KT P6SM SKC FM220300 VRB03KT P6SM SKC FM221400 03006KT P6SM FEW250
Issued Valid From Valid To
Jul-21 @ 17:20 UTC
(5 hours ago)
Jul-21 @ 18:00 UTC
(5 hours ago)
Jul-22 @ 18:00 UTC
(in 19 hours)
Jul-21 @ 18:00 to Jul-22 @ 03:00
KJLN 211720Z 2118/2218 36010KT P6SM SKC
Wind Visibility Clouds
360° at 10 knots Greater than 6 miles
  • Clear skies
From Jul-22 @ 03:00 to Jul-22 @ 14:00
FM220300 VRB03KT P6SM SKC
Wind Visibility Clouds
Variable at 3 knots Greater than 6 miles
  • Clear skies
From Jul-22 @ 14:00 to Jul-22 @ 18:00
FM221400 03006KT P6SM FEW250
Wind Visibility Clouds
30° at 6 knots Greater than 6 miles
  • Few at 25,000' AGL
KJLN 211720Z 2118/2218 36010KT P6SM SKC FM220300 VRB03KT P6SM SKC FM221400 03006KT P6SM FEW250
Issued Jul-21 @ 17:20 UTC
(5 hours ago)
Valid From Jul-21 @ 18:00 UTC
(5 hours ago)
Valid To Jul-22 @ 18:00 UTC
(in 19 hours)
Jul-21 @ 18:00 - Jul-22 @ 03:00
Wind Visibility
360° at 10 knots Greater than 6 miles
Clouds
  • Clear skies
From Jul-22 @ 03:00 - Jul-22 @ 14:00
Wind Visibility
Variable at 3 knots Greater than 6 miles
Clouds
  • Clear skies
From Jul-22 @ 14:00 - Jul-22 @ 18:00
Wind Visibility
30° at 6 knots Greater than 6 miles
Clouds
  • Few at 25,000' AGL